createdAt,value
2019-03-27T00:01:33.328Z,6.30
2019-03-27T00:04:03.838Z,6.40
2019-03-27T00:06:34.259Z,6.30
2019-03-27T00:09:05.512Z,6.30
2019-03-27T00:11:35.689Z,6.30
2019-03-27T00:14:05.930Z,6.30
2019-03-27T00:16:36.081Z,6.30
2019-03-27T00:19:06.471Z,6.30
2019-03-27T00:21:36.628Z,6.20
2019-03-27T00:24:10.424Z,6.20
2019-03-27T00:26:40.536Z,6.20
2019-03-27T00:29:10.969Z,6.20
2019-03-27T00:31:41.875Z,6.20
2019-03-27T00:34:12.608Z,6.20
2019-03-27T00:36:42.843Z,6.20
2019-03-27T00:39:13.040Z,6.20
2019-03-27T00:41:43.177Z,6.20
2019-03-27T00:44:13.324Z,6.20
2019-03-27T00:46:43.694Z,6.20
2019-03-27T00:49:13.824Z,6.20
2019-03-27T00:51:44.060Z,6.20
2019-03-27T00:54:20.367Z,6.20
2019-03-27T00:56:51.070Z,6.20
2019-03-27T00:59:21.431Z,6.20
2019-03-27T01:01:51.589Z,6.20
2019-03-27T01:04:21.767Z,6.30
2019-03-27T01:06:52.077Z,6.30
2019-03-27T01:09:22.385Z,6.30
2019-03-27T01:11:52.540Z,6.30
2019-03-27T01:14:22.764Z,6.30
2019-03-27T01:16:53.263Z,6.30
2019-03-27T01:19:23.651Z,6.30
2019-03-27T01:21:54.853Z,6.40
2019-03-27T01:24:24.960Z,6.40
2019-03-27T01:26:55.106Z,6.40
2019-03-27T01:29:25.221Z,6.40
2019-03-27T01:31:55.451Z,6.40
2019-03-27T01:34:25.881Z,6.40
2019-03-27T01:36:56.094Z,6.40
2019-03-27T01:39:26.396Z,6.40
2019-03-27T01:41:56.543Z,6.40
2019-03-27T01:44:26.739Z,6.40
2019-03-27T01:46:58.924Z,6.40
2019-03-27T01:49:29.141Z,6.50
2019-03-27T01:51:59.366Z,6.50
2019-03-27T01:54:30.053Z,6.40
2019-03-27T01:57:00.212Z,6.40
2019-03-27T01:59:31.215Z,6.40
2019-03-27T02:02:02.076Z,6.40
2019-03-27T02:04:32.273Z,6.40
2019-03-27T02:07:02.667Z,6.40
2019-03-27T02:09:32.933Z,6.50
2019-03-27T02:12:03.188Z,6.40
2019-03-27T02:14:33.743Z,6.50
2019-03-27T02:17:04.164Z,6.50
2019-03-27T02:19:34.426Z,6.50
2019-03-27T02:22:05.156Z,6.50
2019-03-27T02:24:35.266Z,6.50
2019-03-27T02:27:05.536Z,6.50
2019-03-27T02:29:35.679Z,6.50
2019-03-27T02:32:06.058Z,6.50
2019-03-27T02:34:36.266Z,6.50
2019-03-27T02:37:10.762Z,6.50
2019-03-27T02:39:41.365Z,6.50
2019-03-27T02:42:12.338Z,6.50
2019-03-27T02:44:42.931Z,6.50
2019-03-27T02:47:13.325Z,6.50
2019-03-27T02:49:43.472Z,6.60
2019-03-27T02:52:14.128Z,6.60
2019-03-27T02:54:44.258Z,6.60
2019-03-27T02:57:14.409Z,6.50
2019-03-27T02:59:44.525Z,6.50
2019-03-27T03:02:14.845Z,6.60
2019-03-27T03:04:45.180Z,6.50
2019-03-27T03:07:15.417Z,6.50
2019-03-27T03:09:45.712Z,6.50
2019-03-27T03:12:16.026Z,6.50
2019-03-27T03:14:46.254Z,6.50
2019-03-27T03:17:16.478Z,6.50
2019-03-27T03:19:46.930Z,6.50
2019-03-27T03:22:17.383Z,6.50
2019-03-27T03:24:47.498Z,6.50
2019-03-27T03:27:17.641Z,6.50
2019-03-27T03:29:47.770Z,6.50
2019-03-27T03:32:17.892Z,6.50
2019-03-27T03:34:49.753Z,6.50
2019-03-27T03:37:19.964Z,6.50
2019-03-27T03:39:50.597Z,6.50
2019-03-27T03:42:20.730Z,6.50
2019-03-27T03:44:50.948Z,6.50
2019-03-27T03:47:21.060Z,6.50
2019-03-27T03:49:51.186Z,6.50
2019-03-27T03:52:22.063Z,6.60
2019-03-27T03:54:53.845Z,6.50
2019-03-27T03:57:26.131Z,6.60
2019-03-27T03:59:57.607Z,6.60
2019-03-27T04:02:31.938Z,6.50
2019-03-27T04:05:03.910Z,6.50
2019-03-27T04:07:34.093Z,6.60
2019-03-27T04:10:04.306Z,6.60
2019-03-27T04:12:34.713Z,6.60
2019-03-27T04:15:05.433Z,6.60
2019-03-27T04:17:35.668Z,6.50
2019-03-27T04:20:07.332Z,6.50
2019-03-27T04:22:38.293Z,6.50
2019-03-27T04:25:09.106Z,6.60
2019-03-27T04:27:39.633Z,6.50
2019-03-27T04:30:10.567Z,6.50
2019-03-27T04:32:40.741Z,6.50
2019-03-27T04:35:11.081Z,6.50
2019-03-27T04:37:41.492Z,6.50
2019-03-27T04:40:12.037Z,6.50
2019-03-27T04:42:42.433Z,6.50
2019-03-27T04:45:12.770Z,6.50
2019-03-27T04:47:43.237Z,6.50
2019-03-27T04:50:13.517Z,6.50
2019-03-27T04:52:43.648Z,6.50
2019-03-27T04:55:13.822Z,6.50
2019-03-27T04:57:43.948Z,6.50
2019-03-27T05:00:14.764Z,6.50
2019-03-27T05:02:45.021Z,6.50
2019-03-27T05:05:15.419Z,6.50
2019-03-27T05:07:45.831Z,6.50
2019-03-27T05:10:15.974Z,6.50
2019-03-27T05:12:46.354Z,6.50
2019-03-27T05:15:20.401Z,6.50
2019-03-27T05:17:50.720Z,6.50
2019-03-27T05:20:21.465Z,6.50
2019-03-27T05:22:51.789Z,6.50
2019-03-27T05:25:21.913Z,6.60
2019-03-27T05:27:53.290Z,6.60
2019-03-27T05:30:28.517Z,6.50
2019-03-27T05:32:59.071Z,6.50
2019-03-27T05:35:29.459Z,6.60
2019-03-27T05:37:59.954Z,6.60
2019-03-27T05:40:30.433Z,6.60
2019-03-27T05:43:01.490Z,6.60
2019-03-27T05:45:31.692Z,6.60
2019-03-27T05:48:01.808Z,6.60
2019-03-27T05:50:32.013Z,6.70
2019-03-27T05:53:02.338Z,6.70
2019-03-27T05:55:32.633Z,6.70
2019-03-27T05:58:03.308Z,6.70
2019-03-27T06:00:33.981Z,6.70
2019-03-27T06:03:04.530Z,6.80
2019-03-27T06:05:34.712Z,6.80
2019-03-27T06:08:05.694Z,6.90
2019-03-27T06:10:35.990Z,6.90
2019-03-27T06:13:06.281Z,6.90
2019-03-27T06:15:37.094Z,6.90
2019-03-27T06:18:13.437Z,6.90
2019-03-27T06:20:41.350Z,7.00
2019-03-27T06:23:11.607Z,7.10
2019-03-27T06:25:41.985Z,7.00
2019-03-27T06:28:12.581Z,7.10
2019-03-27T06:30:42.901Z,7.10
2019-03-27T06:33:13.109Z,7.10
2019-03-27T06:35:43.372Z,7.10
2019-03-27T06:38:13.961Z,7.20
2019-03-27T06:40:44.282Z,7.20
2019-03-27T06:43:14.554Z,7.20
2019-03-27T06:45:44.750Z,7.20
2019-03-27T06:48:25.727Z,7.20
2019-03-27T06:50:46.843Z,7.20
2019-03-27T06:53:16.948Z,7.20
2019-03-27T06:55:47.456Z,7.30
2019-03-27T06:58:17.579Z,7.30
2019-03-27T07:00:47.785Z,7.30
2019-03-27T07:03:18.224Z,7.40
2019-03-27T07:05:48.382Z,7.40
2019-03-27T07:08:18.755Z,7.50
2019-03-27T07:10:49.173Z,7.60
2019-03-27T07:13:19.584Z,7.70
2019-03-27T07:15:50.191Z,7.70
2019-03-27T07:18:21.247Z,7.80
2019-03-27T07:20:51.669Z,8.00
2019-03-27T07:23:22.046Z,8.00
2019-03-27T07:25:52.643Z,8.00
2019-03-27T07:28:22.933Z,8.00
2019-03-27T07:30:53.175Z,8.00
2019-03-27T07:33:23.501Z,8.00
2019-03-27T07:35:53.712Z,8.10
2019-03-27T07:38:23.943Z,8.30
2019-03-27T07:40:55.189Z,8.40
2019-03-27T07:43:25.806Z,8.50
2019-03-27T07:45:56.571Z,8.50
2019-03-27T07:48:26.947Z,8.60
2019-03-27T07:50:57.288Z,8.50
2019-03-27T07:53:27.975Z,8.50
2019-03-27T07:55:58.323Z,8.50
2019-03-27T07:58:29.005Z,8.60
2019-03-27T08:00:59.658Z,8.70
2019-03-27T08:03:30.036Z,8.70
2019-03-27T08:06:00.357Z,8.70
2019-03-27T08:08:30.592Z,8.60
2019-03-27T08:11:01.610Z,8.60
2019-03-27T08:13:31.908Z,8.70
2019-03-27T08:16:02.437Z,8.80
2019-03-27T08:18:33.331Z,9.00
2019-03-27T08:21:04.137Z,9.00
2019-03-27T08:23:35.145Z,9.00
2019-03-27T08:26:05.789Z,9.00
2019-03-27T08:28:36.153Z,8.90
2019-03-27T08:31:13.608Z,8.90
2019-03-27T08:33:44.394Z,8.70
2019-03-27T08:36:15.027Z,8.70
2019-03-27T08:38:46.514Z,8.80
2019-03-27T08:41:16.877Z,8.80
2019-03-27T08:43:47.257Z,8.80
2019-03-27T08:46:17.570Z,8.80
2019-03-27T08:48:47.901Z,8.90
2019-03-27T08:51:18.487Z,9.00
2019-03-27T08:53:48.978Z,9.10
2019-03-27T08:56:20.341Z,9.00
2019-03-27T08:58:50.975Z,9.10
2019-03-27T09:01:21.863Z,9.30
2019-03-27T09:03:52.692Z,9.40
2019-03-27T09:06:33.024Z,9.60
2019-03-27T09:08:55.234Z,9.70
2019-03-27T09:11:25.619Z,9.80
2019-03-27T09:13:56.041Z,10.00
2019-03-27T09:16:27.697Z,10.10
2019-03-27T09:18:58.075Z,10.20
2019-03-27T09:21:29.022Z,10.20
2019-03-27T09:23:59.689Z,10.20
2019-03-27T09:26:31.373Z,10.30
2019-03-27T09:29:02.709Z,10.20
2019-03-27T09:31:45.391Z,10.10
2019-03-27T09:34:17.692Z,10.10
2019-03-27T09:36:47.897Z,10.10
2019-03-27T09:39:18.310Z,10.10
2019-03-27T09:41:48.514Z,10.20
2019-03-27T09:44:19.257Z,10.30
2019-03-27T09:46:49.757Z,10.40
2019-03-27T09:49:20.635Z,10.40
2019-03-27T09:51:51.160Z,10.40
2019-03-27T09:54:22.058Z,10.30
2019-03-27T09:56:52.449Z,10.30
2019-03-27T09:59:22.778Z,10.30
2019-03-27T10:01:53.104Z,10.20
2019-03-27T10:04:23.476Z,10.30
2019-03-27T10:06:53.957Z,10.30
2019-03-27T10:09:24.151Z,10.30
2019-03-27T10:11:54.386Z,10.30
2019-03-27T10:14:24.802Z,10.50
2019-03-27T10:16:55.068Z,10.50
2019-03-27T10:19:25.493Z,10.50
2019-03-27T10:21:55.721Z,10.50
2019-03-27T10:24:26.309Z,10.60
2019-03-27T10:26:56.650Z,10.70
2019-03-27T10:29:27.478Z,10.50
2019-03-27T10:31:57.643Z,10.40
2019-03-27T10:34:27.843Z,10.30
2019-03-27T10:36:58.137Z,10.40
2019-03-27T10:39:28.547Z,10.40
2019-03-27T10:41:59.857Z,10.60
2019-03-27T10:44:30.454Z,10.80
2019-03-27T10:47:00.887Z,10.80
2019-03-27T10:49:34.165Z,10.80
2019-03-27T10:52:03.044Z,10.80
2019-03-27T10:54:33.645Z,10.80
2019-03-27T10:57:03.970Z,10.70
2019-03-27T10:59:34.180Z,10.60
2019-03-27T11:02:06.141Z,10.50
2019-03-27T11:04:36.434Z,10.50
2019-03-27T11:07:06.908Z,10.40
2019-03-27T11:09:37.379Z,10.30
2019-03-27T11:12:07.884Z,10.40
2019-03-27T11:14:41.450Z,10.50
2019-03-27T11:17:11.741Z,10.60
2019-03-27T11:19:42.154Z,10.50
2019-03-27T11:22:12.503Z,10.50
2019-03-27T11:24:42.794Z,10.30
2019-03-27T11:27:13.071Z,10.30
2019-03-27T11:29:43.547Z,10.30
2019-03-27T11:32:14.600Z,10.40
2019-03-27T11:34:44.886Z,10.40
2019-03-27T11:37:15.421Z,10.40
2019-03-27T11:39:46.433Z,10.40
2019-03-27T11:42:17.060Z,10.50
2019-03-27T11:44:47.737Z,10.20
2019-03-27T11:47:18.274Z,10.00
2019-03-27T11:49:49.540Z,9.90
2019-03-27T11:52:20.155Z,9.80
2019-03-27T11:54:50.765Z,9.70
2019-03-27T11:57:21.187Z,9.60
2019-03-27T11:59:54.136Z,9.60
2019-03-27T12:02:23.774Z,9.50
2019-03-27T12:04:53.996Z,9.40
2019-03-27T12:07:24.356Z,9.40
2019-03-27T12:09:54.675Z,9.50
2019-03-27T12:12:25.019Z,9.50
2019-03-27T12:14:55.506Z,9.60
2019-03-27T12:17:27.116Z,9.60
2019-03-27T12:19:57.462Z,9.50
2019-03-27T12:22:27.892Z,9.60
2019-03-27T12:24:58.366Z,9.60
2019-03-27T12:27:29.866Z,9.70
2019-03-27T12:30:00.387Z,9.50
2019-03-27T12:32:30.748Z,9.50
2019-03-27T12:35:01.052Z,9.60
2019-03-27T12:37:31.362Z,9.60
2019-03-27T12:40:01.561Z,9.50
2019-03-27T12:42:31.988Z,9.50
2019-03-27T12:45:02.446Z,9.50
2019-03-27T12:47:33.594Z,9.50
2019-03-27T12:50:04.188Z,9.60
2019-03-27T12:52:34.580Z,9.60
2019-03-27T12:55:05.258Z,9.60
2019-03-27T12:57:35.675Z,9.60
2019-03-27T13:00:07.833Z,9.50
2019-03-27T13:02:38.068Z,9.40
2019-03-27T13:05:08.973Z,9.30
2019-03-27T13:07:49.892Z,9.20
2019-03-27T13:10:12.733Z,9.10
2019-03-27T13:12:43.030Z,9.10
2019-03-27T13:15:14.901Z,9.10
2019-03-27T13:17:45.406Z,9.20
2019-03-27T13:20:16.183Z,9.20
2019-03-27T13:22:46.818Z,9.20
2019-03-27T13:25:17.595Z,9.30
2019-03-27T13:27:48.022Z,9.20
2019-03-27T13:30:18.776Z,9.20
2019-03-27T13:32:48.916Z,9.20
2019-03-27T13:35:19.481Z,9.20
2019-03-27T13:37:49.932Z,9.10
2019-03-27T13:40:20.569Z,9.10
2019-03-27T13:42:50.775Z,9.10
2019-03-27T13:45:21.116Z,9.20
2019-03-27T13:47:51.437Z,9.10
2019-03-27T13:50:22.926Z,9.20
2019-03-27T13:52:53.260Z,9.20
2019-03-27T13:55:23.432Z,9.20
2019-03-27T13:57:55.759Z,9.10
2019-03-27T14:00:26.183Z,9.10
2019-03-27T14:02:56.513Z,9.10
2019-03-27T14:05:27.114Z,9.00
2019-03-27T14:07:58.277Z,9.00
2019-03-27T14:10:30.047Z,9.00
2019-03-27T14:13:01.169Z,9.00
2019-03-27T14:15:31.541Z,9.00
2019-03-27T14:18:02.275Z,9.00
2019-03-27T14:20:32.720Z,9.10
2019-03-27T14:23:02.922Z,9.10
2019-03-27T14:25:33.146Z,9.10
2019-03-27T14:28:03.335Z,9.10
2019-03-27T14:30:53.019Z,9.10
2019-03-27T14:33:23.435Z,9.00
2019-03-27T14:35:53.956Z,9.00
2019-03-27T14:38:24.446Z,9.00
2019-03-27T14:40:54.862Z,9.10
2019-03-27T14:43:26.973Z,9.00
2019-03-27T14:45:57.362Z,9.00
2019-03-27T14:48:27.950Z,9.00
2019-03-27T14:50:58.670Z,9.00
2019-03-27T14:53:29.074Z,9.00
2019-03-27T14:55:59.784Z,9.00
2019-03-27T14:58:31.964Z,9.00
2019-03-27T15:01:02.492Z,9.00
2019-03-27T15:03:33.561Z,9.10
2019-03-27T15:06:03.972Z,9.00
2019-03-27T15:08:34.541Z,9.10
2019-03-27T15:11:05.286Z,9.00
2019-03-27T15:13:35.729Z,9.00
2019-03-27T15:16:06.272Z,9.00
2019-03-27T15:18:36.635Z,8.90
2019-03-27T15:21:06.975Z,8.90
2019-03-27T15:23:37.204Z,8.90
2019-03-27T15:26:07.718Z,8.90
2019-03-27T15:28:38.018Z,8.90
2019-03-27T15:31:19.860Z,8.90
2019-03-27T15:33:41.349Z,8.90
2019-03-27T15:36:12.251Z,8.90
2019-03-27T15:38:45.825Z,8.90
2019-03-27T15:41:16.692Z,8.90
2019-03-27T15:43:48.311Z,8.90
2019-03-27T15:46:19.181Z,8.90
2019-03-27T15:48:50.019Z,8.90
2019-03-27T15:51:21.966Z,8.90
2019-03-27T15:53:52.320Z,8.90
2019-03-27T15:56:23.022Z,8.90
2019-03-27T15:58:56.296Z,8.90
2019-03-27T16:01:27.674Z,8.90
2019-03-27T16:03:58.415Z,8.80
2019-03-27T16:06:30.035Z,8.90
2019-03-27T16:09:00.558Z,8.80
2019-03-27T16:11:31.166Z,8.80
2019-03-27T16:14:01.873Z,8.80
2019-03-27T16:16:32.390Z,8.80
2019-03-27T16:19:03.097Z,8.70
2019-03-27T16:21:33.926Z,8.70
2019-03-27T16:24:06.652Z,8.70
2019-03-27T16:26:36.529Z,8.70
2019-03-27T16:29:07.197Z,8.70
2019-03-27T16:31:37.957Z,8.70
2019-03-27T16:34:08.597Z,8.70
2019-03-27T16:36:39.279Z,8.80
2019-03-27T16:39:13.045Z,8.80
2019-03-27T16:41:48.055Z,8.80
2019-03-27T16:44:19.669Z,8.80
2019-03-27T16:46:51.073Z,8.80
2019-03-27T16:49:22.006Z,8.80
2019-03-27T16:51:52.437Z,8.80
2019-03-27T16:54:28.123Z,8.80
2019-03-27T16:56:58.769Z,8.80
2019-03-27T16:59:29.126Z,8.80
2019-03-27T17:01:59.818Z,8.80
2019-03-27T17:04:30.158Z,8.80
2019-03-27T17:07:01.316Z,8.80
2019-03-27T17:09:31.759Z,8.80
2019-03-27T17:12:02.401Z,8.80
2019-03-27T17:14:34.868Z,8.80
2019-03-27T17:17:05.438Z,8.80
2019-03-27T17:19:36.010Z,8.80
2019-03-27T17:22:18.911Z,8.80
2019-03-27T17:24:41.911Z,8.80
2019-03-27T17:27:12.816Z,8.80
2019-03-27T17:29:43.662Z,8.80
2019-03-27T17:32:14.614Z,8.80
2019-03-27T17:34:45.630Z,8.80
2019-03-27T17:37:16.525Z,8.80
2019-03-27T17:39:46.957Z,8.80
2019-03-27T17:42:19.417Z,8.80
2019-03-27T17:44:52.120Z,8.80
2019-03-27T17:47:22.090Z,8.80
2019-03-27T17:49:52.760Z,8.80
2019-03-27T17:52:23.081Z,8.80
2019-03-27T17:54:56.695Z,8.80
2019-03-27T17:57:27.606Z,8.80
2019-03-27T17:59:59.573Z,8.80
2019-03-27T18:02:29.803Z,8.80
2019-03-27T18:05:07.561Z,8.80
2019-03-27T18:07:38.290Z,8.80
2019-03-27T18:10:09.109Z,8.80
2019-03-27T18:12:42.859Z,8.80
2019-03-27T18:15:13.787Z,8.80
2019-03-27T18:17:45.611Z,8.70
2019-03-27T18:20:16.705Z,8.70
2019-03-27T18:22:47.292Z,8.60
2019-03-27T18:25:17.950Z,8.60
2019-03-27T18:27:48.934Z,8.60
2019-03-27T18:30:19.806Z,8.60
2019-03-27T18:32:50.324Z,8.60
2019-03-27T18:35:20.897Z,8.60
2019-03-27T18:37:53.346Z,8.60
2019-03-27T18:40:23.957Z,8.60
2019-03-27T18:42:54.382Z,8.60
2019-03-27T18:45:24.989Z,8.60
2019-03-27T18:47:55.393Z,8.60
2019-03-27T18:50:25.826Z,8.60
2019-03-27T18:52:56.112Z,8.60
2019-03-27T18:55:30.871Z,8.60
2019-03-27T18:58:01.169Z,8.60
2019-03-27T19:00:32.975Z,8.60
2019-03-27T19:03:03.558Z,8.60
2019-03-27T19:05:34.621Z,8.60
2019-03-27T19:08:08.199Z,8.60
2019-03-27T19:10:38.563Z,8.60
2019-03-27T19:13:09.019Z,8.60
2019-03-27T19:15:39.291Z,8.60
2019-03-27T19:18:09.481Z,8.60
2019-03-27T19:20:39.719Z,8.60
2019-03-27T19:23:11.358Z,8.60
2019-03-27T19:25:41.629Z,8.60
2019-03-27T19:28:11.857Z,8.60
2019-03-27T19:30:42.121Z,8.60
2019-03-27T19:33:12.704Z,8.60
2019-03-27T19:35:43.066Z,8.60
2019-03-27T19:38:13.656Z,8.60
2019-03-27T19:40:44.007Z,8.60
2019-03-27T19:43:14.751Z,8.50
2019-03-27T19:45:45.036Z,8.60
2019-03-27T19:48:15.607Z,8.60
2019-03-27T19:50:47.068Z,8.50
2019-03-27T19:53:17.300Z,8.50
2019-03-27T19:55:50.577Z,8.50
2019-03-27T19:58:21.344Z,8.50
2019-03-27T20:00:51.651Z,8.50
2019-03-27T20:03:21.929Z,8.50
2019-03-27T20:05:52.201Z,8.50
2019-03-27T20:08:22.466Z,8.50
2019-03-27T20:10:52.683Z,8.40
2019-03-27T20:13:22.817Z,8.40
2019-03-27T20:15:52.949Z,8.50
2019-03-27T20:18:23.109Z,8.50
2019-03-27T20:20:53.276Z,8.50
2019-03-27T20:23:23.556Z,8.40
2019-03-27T20:25:53.876Z,8.40
2019-03-27T20:28:24.507Z,8.40
2019-03-27T20:30:54.704Z,8.40
2019-03-27T20:33:24.936Z,8.40
2019-03-27T20:35:55.321Z,8.40
2019-03-27T20:38:26.018Z,8.40
2019-03-27T20:40:56.800Z,8.40
2019-03-27T20:43:27.125Z,8.30
2019-03-27T20:45:57.458Z,8.30
2019-03-27T20:48:27.717Z,8.30
2019-03-27T20:50:57.845Z,8.30
2019-03-27T20:53:28.549Z,8.30
2019-03-27T20:55:58.830Z,8.30
2019-03-27T20:58:29.230Z,8.30
2019-03-27T21:00:59.616Z,8.30
2019-03-27T21:03:29.848Z,8.30
2019-03-27T21:06:00.246Z,8.30
2019-03-27T21:08:30.803Z,8.20
2019-03-27T21:11:01.225Z,8.30
2019-03-27T21:13:31.676Z,8.20
2019-03-27T21:16:02.008Z,8.20
2019-03-27T21:18:33.716Z,8.30
2019-03-27T21:21:04.752Z,8.20
2019-03-27T21:23:35.749Z,8.20
2019-03-27T21:26:06.065Z,8.20
2019-03-27T21:28:36.394Z,8.20
2019-03-27T21:31:06.798Z,8.20
2019-03-27T21:33:37.098Z,8.20
2019-03-27T21:36:08.436Z,8.20
2019-03-27T21:38:39.488Z,8.20
2019-03-27T21:41:14.345Z,8.20
2019-03-27T21:43:44.851Z,8.20
2019-03-27T21:46:15.435Z,8.20
2019-03-27T21:48:46.565Z,8.20
2019-03-27T21:51:17.077Z,8.20
2019-03-27T21:53:54.199Z,8.20
2019-03-27T21:56:27.024Z,8.20
2019-03-27T21:58:57.156Z,8.20
2019-03-27T22:01:28.248Z,8.20
2019-03-27T22:03:58.508Z,8.20
2019-03-27T22:06:30.394Z,8.20
2019-03-27T22:09:00.735Z,8.20
2019-03-27T22:11:30.954Z,8.20
2019-03-27T22:14:01.112Z,8.20
2019-03-27T22:16:31.212Z,8.20
2019-03-27T22:19:01.410Z,8.10
2019-03-27T22:21:45.011Z,8.10
2019-03-27T22:24:15.254Z,8.10
2019-03-27T22:26:45.632Z,8.10
2019-03-27T22:29:15.815Z,8.10
2019-03-27T22:31:45.964Z,8.10
2019-03-27T22:34:16.212Z,8.10
2019-03-27T22:36:46.528Z,8.10
2019-03-27T22:39:16.714Z,8.10
2019-03-27T22:41:47.217Z,8.10
2019-03-27T22:44:17.472Z,8.10
2019-03-27T22:46:47.607Z,8.10
2019-03-27T22:49:17.789Z,8.10
2019-03-27T22:51:47.962Z,8.10
2019-03-27T22:54:18.124Z,8.10
2019-03-27T22:56:48.364Z,8.10
2019-03-27T22:59:18.509Z,8.10
2019-03-27T23:01:48.828Z,8.10
2019-03-27T23:04:19.297Z,8.10
2019-03-27T23:06:49.561Z,8.10
2019-03-27T23:09:20.297Z,8.10
2019-03-27T23:11:50.616Z,8.10
2019-03-27T23:14:21.021Z,8.10
2019-03-27T23:16:51.219Z,8.10
2019-03-27T23:19:21.368Z,8.00
2019-03-27T23:21:51.536Z,8.00
2019-03-27T23:24:21.676Z,8.00
2019-03-27T23:26:51.808Z,8.00
2019-03-27T23:29:22.471Z,8.00
2019-03-27T23:31:53.012Z,8.00
2019-03-27T23:34:23.163Z,8.00
2019-03-27T23:36:53.365Z,8.00
2019-03-27T23:39:24.089Z,8.00
2019-03-27T23:41:54.457Z,8.00
2019-03-27T23:44:24.623Z,8.00
2019-03-27T23:46:56.479Z,8.00
2019-03-27T23:49:26.649Z,8.00
2019-03-27T23:51:56.791Z,8.00
2019-03-27T23:54:27.028Z,8.00
2019-03-27T23:56:57.182Z,8.00
2019-03-27T23:59:27.396Z,8.00
